Allen, Kansas
Current Conditions -  °F | °C
As of 3:53 PM on Friday 24 Oct 2014 (Local Time) from KEMP Reporting Station
Clear Clear  
Wind Chill: 26°   Ceiling: Unl
Heat Index: 27°   Visibility: 10mi
Dew Point: 16°   Wind: 12mph
Humidity: 52%   Direction: 220°SW
Pressure: 29.98"   Gusts: NA
Location:  38.66°N, 96.17°W
Report Text: KEMP 242053Z AUTO 22010KT 10SM CLR 26/16 A2998 RMK AO2 SLP144 T02610156 56022
Loading
Personal Weather Stations






























Interactive Weather Map
Tropical Storm Tracking
New forecast layout! Learn more

10-Day Weather Forecast

Advertisements
Track Severe Weather on mobile